createdAt,value
2022-11-21T00:00:32.188Z,2.50
2022-11-21T00:03:02.344Z,2.51
2022-11-21T00:05:48.886Z,2.51
2022-11-21T00:08:19.110Z,2.50
2022-11-21T00:10:45.607Z,2.51
2022-11-21T00:13:18.948Z,2.48
2022-11-21T00:15:46.296Z,2.45
2022-11-21T00:18:13.127Z,2.42
2022-11-21T00:20:44.870Z,2.40
2022-11-21T00:23:13.319Z,2.41
2022-11-21T00:25:39.770Z,2.40
2022-11-21T00:28:06.259Z,2.43
2022-11-21T00:30:54.818Z,2.44
2022-11-21T00:33:21.190Z,2.45
2022-11-21T00:35:47.536Z,2.45
2022-11-21T00:39:07.741Z,2.42
2022-11-21T00:41:34.381Z,2.40
2022-11-21T00:44:00.736Z,2.40
2022-11-21T00:46:35.410Z,2.39
2022-11-21T00:49:05.926Z,2.40
2022-11-21T00:51:40.379Z,2.40
2022-11-21T00:54:06.746Z,2.41
2022-11-21T00:56:36.163Z,2.39
2022-11-21T00:59:22.911Z,2.41
2022-11-21T01:01:51.330Z,2.40
2022-11-21T01:04:43.759Z,2.40
2022-11-21T01:07:42.415Z,2.38
2022-11-21T01:10:20.048Z,2.36
2022-11-21T01:12:58.647Z,2.38
2022-11-21T01:15:30.186Z,2.39
2022-11-21T01:18:04.889Z,2.40
2022-11-21T01:20:31.362Z,2.36
2022-11-21T01:22:57.682Z,2.36
2022-11-21T01:25:37.430Z,2.34
2022-11-21T01:28:03.902Z,2.34
2022-11-21T01:30:53.869Z,2.35
2022-11-21T01:33:34.137Z,2.34
2022-11-21T01:36:23.432Z,2.35
2022-11-21T01:39:06.308Z,2.36
2022-11-21T01:41:34.459Z,2.35
2022-11-21T01:44:10.728Z,2.35
2022-11-21T01:46:45.958Z,2.35
2022-11-21T01:49:29.125Z,2.35
2022-11-21T01:52:12.042Z,2.33
2022-11-21T01:54:47.933Z,2.34
2022-11-21T01:58:06.033Z,2.36
2022-11-21T02:00:38.411Z,2.34
2022-11-21T02:03:11.603Z,2.32
2022-11-21T02:05:48.289Z,2.32
2022-11-21T02:08:19.834Z,2.31
2022-11-21T02:11:04.735Z,2.30
2022-11-21T02:13:31.279Z,2.30
2022-11-21T02:16:14.754Z,2.29
2022-11-21T02:18:46.248Z,2.28
2022-11-21T02:21:54.249Z,2.29
2022-11-21T02:24:30.548Z,2.33
2022-11-21T02:26:57.882Z,2.34
2022-11-21T02:29:24.406Z,2.34
2022-11-21T02:32:00.341Z,2.35
2022-11-21T02:34:45.069Z,2.35
2022-11-21T02:37:12.486Z,2.36
2022-11-21T02:39:43.451Z,2.36
2022-11-21T02:42:36.675Z,2.31
2022-11-21T02:45:14.160Z,2.30
2022-11-21T02:47:47.055Z,2.31
2022-11-21T02:51:02.252Z,2.33
2022-11-21T02:53:58.643Z,2.33
2022-11-21T02:56:53.337Z,2.34
2022-11-21T02:59:46.556Z,2.37
2022-11-21T03:02:41.124Z,2.34
2022-11-21T03:05:27.578Z,2.30
2022-11-21T03:11:43.691Z,2.33
2022-11-21T03:14:11.043Z,2.32
2022-11-21T03:16:37.399Z,2.31
2022-11-21T03:19:04.108Z,2.33
2022-11-21T03:21:30.461Z,2.32
2022-11-21T03:24:03.154Z,2.32
2022-11-21T03:30:18.718Z,2.29
2022-11-21T03:32:45.162Z,2.27
2022-11-21T03:35:11.530Z,2.26
2022-11-21T03:37:37.893Z,2.24
2022-11-21T03:40:10.772Z,2.22
2022-11-21T03:42:41.157Z,2.20
2022-11-21T03:45:16.004Z,2.17
2022-11-21T03:47:54.535Z,2.15
2022-11-21T03:50:22.075Z,2.12
2022-11-21T03:52:59.668Z,2.11
2022-11-21T03:55:38.548Z,2.15
2022-11-21T03:58:06.306Z,2.20
2022-11-21T04:00:32.687Z,2.19
2022-11-21T04:03:05.327Z,2.19
2022-11-21T04:09:12.382Z,2.22
2022-11-21T04:11:38.772Z,2.21
2022-11-21T04:14:06.222Z,2.18
2022-11-21T04:16:42.964Z,2.14
2022-11-21T04:19:10.447Z,2.15
2022-11-21T04:21:46.940Z,2.19
2022-11-21T04:24:16.406Z,2.22
2022-11-21T04:26:57.182Z,2.22
2022-11-21T04:29:41.950Z,2.21
2022-11-21T04:32:08.305Z,2.25
2022-11-21T04:35:09.778Z,2.27
2022-11-21T04:37:39.406Z,2.29
2022-11-21T04:40:22.861Z,2.29
2022-11-21T04:43:01.637Z,2.29
2022-11-21T04:45:28.070Z,2.30
2022-11-21T04:48:21.160Z,2.27
2022-11-21T04:50:48.552Z,2.27
2022-11-21T04:53:30.222Z,2.27
2022-11-21T04:55:56.781Z,2.30
2022-11-21T04:58:23.180Z,2.30
2022-11-21T05:00:49.662Z,2.31
2022-11-21T05:04:05.043Z,2.27
2022-11-21T05:06:50.048Z,2.27
2022-11-21T05:09:23.550Z,2.30
2022-11-21T05:12:08.685Z,2.32
2022-11-21T05:14:49.734Z,2.33
2022-11-21T05:17:16.377Z,2.33
2022-11-21T05:19:43.890Z,2.34
2022-11-21T05:23:01.444Z,2.32
2022-11-21T05:25:27.835Z,2.35
2022-11-21T05:28:00.495Z,2.37
2022-11-21T05:30:32.055Z,2.40
2022-11-21T05:33:03.602Z,2.39
2022-11-21T05:35:30.043Z,2.39
2022-11-21T05:38:07.547Z,2.42
2022-11-21T05:40:36.039Z,2.44
2022-11-21T05:43:21.151Z,2.45
2022-11-21T05:45:50.204Z,2.42
2022-11-21T05:48:34.306Z,2.40
2022-11-21T05:51:13.839Z,2.39
2022-11-21T05:53:40.518Z,2.40
2022-11-21T05:56:12.440Z,2.36
2022-11-21T05:58:51.603Z,2.33
2022-11-21T06:01:37.976Z,2.33
2022-11-21T06:04:04.664Z,2.38
2022-11-21T06:06:33.503Z,2.41
2022-11-21T06:08:59.888Z,2.41
2022-11-21T06:11:38.598Z,2.43
2022-11-21T06:14:13.111Z,2.47
2022-11-21T06:17:29.515Z,2.48
2022-11-21T06:19:57.003Z,2.48
2022-11-21T06:22:30.310Z,2.50
2022-11-21T06:25:35.880Z,2.50
2022-11-21T06:28:37.859Z,2.47
2022-11-21T06:31:10.865Z,2.47
2022-11-21T06:33:58.684Z,2.47
2022-11-21T06:37:07.919Z,2.50
2022-11-21T06:39:48.758Z,2.53
2022-11-21T06:42:33.959Z,2.53
2022-11-21T06:48:53.483Z,2.58
2022-11-21T06:51:27.978Z,2.60
2022-11-21T06:53:59.100Z,2.62
2022-11-21T06:56:31.901Z,2.65
2022-11-21T06:58:58.611Z,2.68
2022-11-21T07:01:30.273Z,2.70
2022-11-21T07:04:00.762Z,2.70
2022-11-21T07:06:27.464Z,2.73
2022-11-21T07:09:31.773Z,2.75
2022-11-21T07:11:52.562Z,2.72
2022-11-21T07:14:19.072Z,2.73
2022-11-21T07:16:58.770Z,2.74
2022-11-21T07:19:25.600Z,2.74
2022-11-21T07:21:55.191Z,2.76
2022-11-21T07:24:39.935Z,2.78
2022-11-21T07:27:06.396Z,2.79
2022-11-21T07:29:47.136Z,2.81
2022-11-21T07:32:28.170Z,2.84
2022-11-21T07:34:58.778Z,2.84
2022-11-21T07:37:42.388Z,2.84
2022-11-21T07:40:18.795Z,2.82
2022-11-21T07:42:45.208Z,2.84
2022-11-21T07:45:12.589Z,2.86
2022-11-21T07:47:38.990Z,2.89
2022-11-21T07:50:06.849Z,2.90
2022-11-21T07:52:33.364Z,2.92
2022-11-21T07:55:02.355Z,2.95
2022-11-21T07:57:29.233Z,2.99
2022-11-21T07:59:55.870Z,3.03
2022-11-21T08:02:26.935Z,3.02
2022-11-21T08:04:54.301Z,3.02
2022-11-21T08:07:22.313Z,3.04
2022-11-21T08:09:48.923Z,3.03
2022-11-21T08:12:15.743Z,3.06
2022-11-21T08:14:42.118Z,3.08
2022-11-21T08:17:08.619Z,3.14
2022-11-21T08:19:35.049Z,3.13
2022-11-21T08:22:06.456Z,3.13
2022-11-21T08:25:04.143Z,3.16
2022-11-21T08:27:30.586Z,3.18
2022-11-21T08:33:56.035Z,3.22
2022-11-21T08:36:22.463Z,3.27
2022-11-21T08:38:48.808Z,3.30
2022-11-21T08:41:33.789Z,3.33
2022-11-21T08:44:14.083Z,3.36
2022-11-21T08:46:52.220Z,3.38
2022-11-21T08:49:49.627Z,3.38
2022-11-21T08:52:47.034Z,3.38
2022-11-21T08:55:13.467Z,3.41
2022-11-21T08:57:42.103Z,3.44
2022-11-21T09:00:12.518Z,3.46
2022-11-21T09:02:39.028Z,3.48
2022-11-21T09:05:05.932Z,3.50
2022-11-21T09:07:48.763Z,3.54
2022-11-21T09:10:21.574Z,3.56
2022-11-21T09:12:47.915Z,3.58
2022-11-21T09:15:40.165Z,3.58
2022-11-21T09:19:04.332Z,3.63
2022-11-21T09:21:30.785Z,3.65
2022-11-21T09:24:00.252Z,3.70
2022-11-21T09:26:26.646Z,3.71
2022-11-21T09:29:03.423Z,3.74
2022-11-21T09:32:12.459Z,3.77
2022-11-21T09:34:40.930Z,3.78
2022-11-21T09:37:07.295Z,3.78
2022-11-21T09:39:44.832Z,3.80
2022-11-21T09:42:36.673Z,3.84
2022-11-21T09:45:18.123Z,3.88
2022-11-21T09:48:11.030Z,3.91
2022-11-21T09:51:10.810Z,3.92
2022-11-21T09:54:01.953Z,3.93
2022-11-21T09:56:34.025Z,3.95
2022-11-21T09:59:42.202Z,4.01
2022-11-21T10:02:20.995Z,4.05
2022-11-21T10:05:00.591Z,4.07
2022-11-21T10:07:32.214Z,4.09
2022-11-21T10:10:20.897Z,4.06
2022-11-21T10:13:30.588Z,4.05
2022-11-21T10:16:20.054Z,4.08
2022-11-21T10:19:39.299Z,4.11
2022-11-21T10:22:29.671Z,4.14
2022-11-21T10:25:14.003Z,4.18
2022-11-21T10:28:18.557Z,4.20
2022-11-21T10:30:46.903Z,4.20
2022-11-21T10:33:47.851Z,4.23
2022-11-21T10:37:01.964Z,4.26
2022-11-21T10:39:53.274Z,4.28
2022-11-21T10:42:41.794Z,4.31
2022-11-21T10:45:19.418Z,4.33
2022-11-21T10:47:48.362Z,4.36
2022-11-21T10:50:26.040Z,4.42
2022-11-21T10:53:38.219Z,4.46
2022-11-21T10:56:12.124Z,4.52
2022-11-21T10:59:28.646Z,4.56
2022-11-21T11:02:48.541Z,4.62
2022-11-21T11:05:41.490Z,4.67
2022-11-21T11:08:15.041Z,4.70
2022-11-21T11:11:14.991Z,4.76
2022-11-21T11:14:02.947Z,4.83
2022-11-21T11:16:31.087Z,4.88
